createdAt,value
2018-01-23T00:00:30.054Z,7.55
2018-01-23T00:01:30.021Z,7.67
2018-01-23T00:02:29.991Z,7.64
2018-01-23T00:03:29.966Z,7.55
2018-01-23T00:04:29.940Z,7.68
2018-01-23T00:05:29.914Z,7.58
2018-01-23T00:06:29.884Z,7.63
2018-01-23T00:07:29.855Z,7.59
2018-01-23T00:08:29.832Z,7.59
2018-01-23T00:09:29.799Z,7.63
2018-01-23T00:10:29.795Z,7.64
2018-01-23T00:11:29.755Z,7.58
2018-01-23T00:12:29.746Z,7.64
2018-01-23T00:13:29.702Z,7.67
2018-01-23T00:14:29.664Z,7.56
2018-01-23T00:15:29.630Z,7.59
2018-01-23T00:16:29.617Z,7.59
2018-01-23T00:17:29.589Z,7.58
2018-01-23T00:18:29.601Z,7.49
2018-01-23T00:19:29.530Z,7.58
2018-01-23T00:20:29.498Z,7.55
2018-01-23T00:21:29.482Z,7.56
2018-01-23T00:22:29.445Z,7.51
2018-01-23T00:23:29.435Z,7.49
2018-01-23T00:24:29.390Z,7.49
2018-01-23T00:25:29.356Z,7.54
2018-01-23T00:26:29.332Z,7.58
2018-01-23T00:27:29.931Z,7.58
2018-01-23T00:28:29.284Z,7.61
2018-01-23T00:29:29.290Z,7.58
2018-01-23T00:30:29.228Z,7.59
2018-01-23T00:31:29.215Z,7.58
2018-01-23T00:32:29.172Z,7.63
2018-01-23T00:33:29.151Z,7.63
2018-01-23T00:34:29.131Z,7.73
2018-01-23T00:35:29.092Z,7.63
2018-01-23T00:36:29.056Z,7.68
2018-01-23T00:37:29.034Z,7.55
2018-01-23T00:38:29.023Z,7.67
2018-01-23T00:39:28.995Z,7.63
2018-01-23T00:40:28.943Z,7.67
2018-01-23T00:41:28.923Z,7.63
2018-01-23T00:42:28.889Z,7.64
2018-01-23T00:43:28.868Z,7.67
2018-01-23T00:44:28.861Z,7.63
2018-01-23T00:45:28.855Z,7.67
2018-01-23T00:46:28.793Z,7.70
2018-01-23T00:47:28.762Z,7.68
2018-01-23T00:48:28.739Z,7.67
2018-01-23T00:49:28.706Z,7.67
2018-01-23T00:50:28.685Z,7.61
2018-01-23T00:51:28.686Z,7.56
2018-01-23T00:52:28.639Z,7.61
2018-01-23T00:53:28.616Z,7.63
2018-01-23T00:54:28.578Z,7.56
2018-01-23T00:55:28.539Z,7.58
2018-01-23T00:56:28.522Z,7.52
2018-01-23T00:57:28.494Z,7.59
2018-01-23T00:58:28.457Z,7.61
2018-01-23T00:59:28.439Z,7.59
2018-01-23T01:00:28.401Z,7.63
2018-01-23T01:01:28.389Z,7.67
2018-01-23T01:02:28.350Z,7.63
2018-01-23T01:03:28.337Z,7.59
2018-01-23T01:04:28.319Z,7.55
2018-01-23T01:05:28.959Z,7.59
2018-01-23T01:06:28.246Z,7.63
2018-01-23T01:07:28.223Z,7.55
2018-01-23T01:08:28.180Z,7.61
2018-01-23T01:09:28.158Z,7.64
2018-01-23T01:10:28.126Z,7.63
2018-01-23T01:11:28.103Z,7.64
2018-01-23T01:12:28.086Z,7.67
2018-01-23T01:13:28.038Z,7.63
2018-01-23T01:14:28.022Z,7.75
2018-01-23T01:15:28.010Z,7.73
2018-01-23T01:16:27.966Z,7.70
2018-01-23T01:17:27.945Z,7.70
2018-01-23T01:18:27.924Z,7.59
2018-01-23T01:19:27.880Z,7.59
2018-01-23T01:20:27.863Z,7.51
2018-01-23T01:21:27.823Z,7.61
2018-01-23T01:22:27.799Z,7.52
2018-01-23T01:23:27.790Z,7.54
2018-01-23T01:24:27.750Z,7.55
2018-01-23T01:25:27.717Z,7.58
2018-01-23T01:26:27.702Z,7.59
2018-01-23T01:27:27.669Z,7.59
2018-01-23T01:28:27.636Z,7.67
2018-01-23T01:29:27.605Z,7.71
2018-01-23T01:30:27.577Z,7.59
2018-01-23T01:31:27.562Z,7.71
2018-01-23T01:32:27.518Z,7.64
2018-01-23T01:33:27.522Z,7.56
2018-01-23T01:34:27.494Z,7.64
2018-01-23T01:35:27.438Z,7.59
2018-01-23T01:36:27.430Z,7.61
2018-01-23T01:37:27.391Z,7.45
2018-01-23T01:38:27.379Z,7.54
2018-01-23T01:39:27.348Z,7.54
2018-01-23T01:40:27.307Z,7.44
2018-01-23T01:41:27.305Z,7.45
2018-01-23T01:42:27.265Z,7.49
2018-01-23T01:43:27.228Z,7.44
2018-01-23T01:44:27.198Z,7.58
2018-01-23T01:45:27.183Z,7.63
2018-01-23T01:46:27.138Z,7.59
2018-01-23T01:47:27.133Z,7.52
2018-01-23T01:48:27.090Z,7.58
2018-01-23T01:49:27.059Z,7.55
2018-01-23T01:50:27.037Z,7.54
2018-01-23T01:51:27.011Z,7.48
2018-01-23T01:52:26.980Z,7.44
2018-01-23T01:53:26.950Z,7.41
2018-01-23T01:54:26.927Z,7.37
2018-01-23T01:55:26.902Z,7.37
2018-01-23T01:56:26.871Z,7.44
2018-01-23T01:57:26.840Z,7.48
2018-01-23T01:58:26.811Z,7.48
2018-01-23T01:59:26.792Z,7.47
2018-01-23T02:00:26.762Z,7.33
2018-01-23T02:01:26.737Z,7.51
2018-01-23T02:02:26.700Z,7.36
2018-01-23T02:03:26.683Z,7.39
2018-01-23T02:04:26.652Z,7.31
2018-01-23T02:05:26.613Z,7.37
2018-01-23T02:06:26.600Z,7.44
2018-01-23T02:07:26.565Z,7.41
2018-01-23T02:08:26.538Z,7.41
2018-01-23T02:09:26.522Z,7.39
2018-01-23T02:10:26.516Z,7.36
2018-01-23T02:11:26.480Z,7.37
2018-01-23T02:12:26.439Z,7.40
2018-01-23T02:13:26.400Z,7.39
2018-01-23T02:14:26.381Z,7.36
2018-01-23T02:15:26.343Z,7.40
2018-01-23T02:16:26.334Z,7.39
2018-01-23T02:17:26.286Z,7.34
2018-01-23T02:18:26.285Z,7.39
2018-01-23T02:19:26.256Z,7.36
2018-01-23T02:20:26.223Z,7.36
2018-01-23T02:21:26.193Z,7.41
2018-01-23T02:22:26.153Z,7.40
2018-01-23T02:23:26.136Z,7.47
2018-01-23T02:24:26.124Z,7.44
2018-01-23T02:25:26.082Z,7.45
2018-01-23T02:26:26.034Z,7.47
2018-01-23T02:27:26.013Z,7.52
2018-01-23T02:28:25.988Z,7.56
2018-01-23T02:29:25.955Z,7.47
2018-01-23T02:30:25.927Z,7.56
2018-01-23T02:31:25.911Z,7.55
2018-01-23T02:32:25.895Z,7.63
2018-01-23T02:33:25.847Z,7.58
2018-01-23T02:34:25.821Z,7.56
2018-01-23T02:35:25.795Z,7.63
2018-01-23T02:36:25.779Z,7.64
2018-01-23T02:37:25.745Z,7.67
2018-01-23T02:38:25.741Z,7.55
2018-01-23T02:39:25.678Z,7.61
2018-01-23T02:40:26.453Z,7.71
2018-01-23T02:41:25.650Z,7.70
2018-01-23T02:42:25.605Z,7.80
2018-01-23T02:43:25.570Z,7.74
2018-01-23T02:44:25.552Z,7.68
2018-01-23T02:45:25.563Z,7.70
2018-01-23T02:46:25.503Z,7.67
2018-01-23T02:47:25.464Z,7.59
2018-01-23T02:48:25.448Z,7.56
2018-01-23T02:49:25.427Z,7.54
2018-01-23T02:50:25.401Z,7.58
2018-01-23T02:51:25.367Z,7.54
2018-01-23T02:52:25.329Z,7.49
2018-01-23T02:53:25.298Z,7.47
2018-01-23T02:54:25.291Z,7.45
2018-01-23T02:55:25.257Z,7.49
2018-01-23T02:56:25.215Z,7.48
2018-01-23T02:57:25.198Z,7.47
2018-01-23T02:58:25.181Z,7.58
2018-01-23T02:59:25.165Z,7.52
2018-01-23T03:00:25.115Z,7.55
2018-01-23T03:01:25.109Z,7.59
2018-01-23T03:02:25.066Z,7.63
2018-01-23T03:03:25.045Z,7.52
2018-01-23T03:04:25.020Z,7.55
2018-01-23T03:05:24.976Z,7.55
2018-01-23T03:06:24.960Z,7.45
2018-01-23T03:07:24.925Z,7.44
2018-01-23T03:08:24.889Z,7.54
2018-01-23T03:09:24.895Z,7.56
2018-01-23T03:10:24.844Z,7.56
2018-01-23T03:11:24.814Z,7.49
2018-01-23T03:12:24.791Z,7.55
2018-01-23T03:13:24.762Z,7.52
2018-01-23T03:14:24.769Z,7.55
2018-01-23T03:15:24.748Z,7.55
2018-01-23T03:16:24.674Z,7.58
2018-01-23T03:17:24.652Z,7.61
2018-01-23T03:18:24.622Z,7.63
2018-01-23T03:19:24.596Z,7.63
2018-01-23T03:20:24.584Z,7.64
2018-01-23T03:21:24.572Z,7.56
2018-01-23T03:22:24.527Z,7.55
2018-01-23T03:23:24.491Z,7.47
2018-01-23T03:24:24.479Z,7.48
2018-01-23T03:25:24.457Z,7.49
2018-01-23T03:26:24.415Z,7.33
2018-01-23T03:27:24.389Z,7.29
2018-01-23T03:28:24.358Z,7.36
2018-01-23T03:29:24.336Z,7.37
2018-01-23T03:30:24.303Z,7.30
2018-01-23T03:31:24.280Z,7.26
2018-01-23T03:32:24.252Z,7.31
2018-01-23T03:33:24.240Z,7.29
2018-01-23T03:34:24.191Z,7.30
2018-01-23T03:35:24.158Z,7.36
2018-01-23T03:36:24.158Z,7.47
2018-01-23T03:37:25.030Z,7.49
2018-01-23T03:38:24.082Z,7.47
2018-01-23T03:39:24.073Z,7.45
2018-01-23T03:40:24.027Z,7.47
2018-01-23T03:41:23.997Z,7.47
2018-01-23T03:42:23.970Z,7.44
2018-01-23T03:43:23.961Z,7.49
2018-01-23T03:44:23.927Z,7.54
2018-01-23T03:45:23.919Z,7.51
2018-01-23T03:46:23.859Z,7.51
2018-01-23T03:47:23.831Z,7.49
2018-01-23T03:48:23.803Z,7.51
2018-01-23T03:49:23.792Z,7.51
2018-01-23T03:50:23.749Z,7.59
2018-01-23T03:51:23.721Z,7.52
2018-01-23T03:52:23.703Z,7.55
2018-01-23T03:53:23.690Z,7.52
2018-01-23T03:54:23.661Z,7.59
2018-01-23T03:55:23.611Z,7.58
2018-01-23T03:56:23.594Z,7.61
2018-01-23T03:57:23.583Z,7.59
2018-01-23T03:58:23.530Z,7.52
2018-01-23T03:59:23.522Z,7.55
2018-01-23T04:00:23.488Z,7.59
2018-01-23T04:01:23.472Z,7.59
2018-01-23T04:02:23.415Z,7.54
2018-01-23T04:03:23.400Z,7.47
2018-01-23T04:04:23.385Z,7.41
2018-01-23T04:05:23.352Z,7.40
2018-01-23T04:06:23.321Z,7.39
2018-01-23T04:07:23.285Z,7.37
2018-01-23T04:08:23.266Z,7.37
2018-01-23T04:09:23.231Z,7.40
2018-01-23T04:10:23.207Z,7.37
2018-01-23T04:11:23.208Z,7.34
2018-01-23T04:12:23.166Z,7.40
2018-01-23T04:13:23.138Z,7.41
2018-01-23T04:14:23.110Z,7.41
2018-01-23T04:15:23.069Z,7.41
2018-01-23T04:16:23.038Z,7.51
2018-01-23T04:17:23.038Z,7.34
2018-01-23T04:18:22.981Z,7.34
2018-01-23T04:19:22.949Z,7.40
2018-01-23T04:20:22.935Z,7.30
2018-01-23T04:21:22.899Z,7.26
2018-01-23T04:22:22.874Z,7.37
2018-01-23T04:23:22.843Z,7.31
2018-01-23T04:24:22.856Z,7.41
2018-01-23T04:25:22.787Z,7.39
2018-01-23T04:26:22.790Z,7.37
2018-01-23T04:27:22.744Z,7.37
2018-01-23T04:28:22.709Z,7.34
2018-01-23T04:29:22.675Z,7.37
2018-01-23T04:30:22.656Z,7.30
2018-01-23T04:31:22.627Z,7.39
2018-01-23T04:32:22.601Z,7.30
2018-01-23T04:33:22.577Z,7.27
2018-01-23T04:34:22.568Z,7.29
2018-01-23T04:35:22.516Z,7.36
2018-01-23T04:36:22.490Z,7.39
2018-01-23T04:37:22.476Z,7.37
2018-01-23T04:38:22.437Z,7.47
2018-01-23T04:39:22.405Z,7.37
2018-01-23T04:40:22.372Z,7.51
2018-01-23T04:41:22.355Z,7.48
2018-01-23T04:42:22.315Z,7.51
2018-01-23T04:43:22.290Z,7.45
2018-01-23T04:44:22.264Z,7.54
2018-01-23T04:45:22.269Z,7.45
2018-01-23T04:46:22.235Z,7.45
2018-01-23T04:47:22.205Z,7.47
2018-01-23T04:48:22.162Z,7.45
2018-01-23T04:49:22.127Z,7.45
2018-01-23T04:50:22.106Z,7.41
2018-01-23T04:51:22.077Z,7.54
2018-01-23T04:52:22.048Z,7.56
2018-01-23T04:53:22.015Z,7.52
2018-01-23T04:54:21.997Z,7.48
2018-01-23T04:55:21.974Z,7.47
2018-01-23T04:56:21.931Z,7.52
2018-01-23T04:57:21.911Z,7.48
2018-01-23T04:58:21.897Z,7.54
2018-01-23T04:59:21.860Z,7.58
2018-01-23T05:00:21.840Z,7.52
2018-01-23T05:01:21.815Z,7.49
2018-01-23T05:02:21.775Z,7.54
2018-01-23T05:03:21.763Z,7.40
2018-01-23T05:04:21.715Z,7.49
2018-01-23T05:05:21.690Z,7.56
2018-01-23T05:06:21.699Z,7.40
2018-01-23T05:07:21.642Z,7.39
2018-01-23T05:08:21.633Z,7.49
2018-01-23T05:09:21.596Z,7.34
2018-01-23T05:10:21.561Z,7.55
2018-01-23T05:11:21.539Z,7.41
2018-01-23T05:12:21.514Z,7.36
2018-01-23T05:13:21.483Z,7.34
2018-01-23T05:14:21.470Z,7.30
2018-01-23T05:15:21.429Z,7.26
2018-01-23T05:16:21.401Z,7.22
2018-01-23T05:17:21.369Z,7.29
2018-01-23T05:18:21.347Z,7.26
2018-01-23T05:19:21.306Z,7.27
2018-01-23T05:20:21.283Z,7.30
2018-01-23T05:21:21.260Z,7.29
2018-01-23T05:22:21.233Z,7.26
2018-01-23T05:23:21.207Z,7.30
2018-01-23T05:24:21.211Z,7.22
2018-01-23T05:25:21.148Z,7.23
2018-01-23T05:26:21.145Z,7.30
2018-01-23T05:27:21.096Z,7.27
2018-01-23T05:28:21.071Z,7.23
2018-01-23T05:29:21.032Z,7.26
2018-01-23T05:30:21.007Z,7.26
2018-01-23T05:31:20.980Z,7.29
2018-01-23T05:32:20.964Z,7.27
2018-01-23T05:33:20.944Z,7.27
2018-01-23T05:34:20.893Z,7.27
2018-01-23T05:35:20.876Z,7.21
2018-01-23T05:36:20.859Z,7.21
2018-01-23T05:37:20.827Z,7.27
2018-01-23T05:38:20.792Z,7.13
2018-01-23T05:39:20.769Z,7.18
2018-01-23T05:40:20.741Z,7.15
2018-01-23T05:41:20.718Z,7.15
2018-01-23T05:42:20.694Z,7.05
2018-01-23T05:43:20.665Z,7.13
2018-01-23T05:44:20.626Z,7.03
2018-01-23T05:45:20.604Z,7.18
2018-01-23T05:46:20.567Z,7.13
2018-01-23T05:47:20.541Z,7.18
2018-01-23T05:48:20.527Z,7.12
2018-01-23T05:49:20.508Z,7.16
2018-01-23T05:50:20.463Z,7.13
2018-01-23T05:51:20.437Z,7.12
2018-01-23T05:52:20.423Z,7.23
2018-01-23T05:53:20.407Z,7.27
2018-01-23T05:54:20.379Z,7.37
2018-01-23T05:55:20.335Z,7.39
2018-01-23T05:56:20.312Z,7.33
2018-01-23T05:57:20.274Z,7.41
2018-01-23T05:58:20.245Z,7.37
2018-01-23T05:59:20.235Z,7.47
2018-01-23T06:00:20.205Z,7.47
2018-01-23T06:01:20.168Z,7.52
2018-01-23T06:02:20.132Z,7.40
2018-01-23T06:03:20.125Z,7.44
2018-01-23T06:04:20.073Z,7.48
2018-01-23T06:05:20.052Z,7.49
2018-01-23T06:06:20.087Z,7.40
2018-01-23T06:07:19.995Z,7.40
2018-01-23T06:08:19.993Z,7.34
2018-01-23T06:09:19.957Z,7.27
2018-01-23T06:10:19.920Z,7.13
2018-01-23T06:11:19.882Z,7.16
2018-01-23T06:12:19.876Z,7.22
2018-01-23T06:13:19.846Z,7.16
2018-01-23T06:14:19.839Z,7.16
2018-01-23T06:15:20.481Z,7.15
2018-01-23T06:16:19.776Z,7.01
2018-01-23T06:17:19.721Z,7.08
2018-01-23T06:18:19.715Z,7.01
2018-01-23T06:19:19.670Z,6.98
2018-01-23T06:20:19.643Z,6.98
2018-01-23T06:21:19.614Z,6.90
2018-01-23T06:22:19.604Z,6.88
2018-01-23T06:23:19.559Z,6.88
2018-01-23T06:24:19.546Z,6.94
2018-01-23T06:25:19.523Z,6.86
2018-01-23T06:26:19.486Z,6.88
2018-01-23T06:27:19.478Z,6.79
2018-01-23T06:28:19.433Z,6.79
2018-01-23T06:29:19.414Z,6.73
2018-01-23T06:30:19.375Z,6.79
2018-01-23T06:31:19.348Z,6.85
2018-01-23T06:32:19.318Z,6.86
2018-01-23T06:33:19.285Z,6.83
2018-01-23T06:34:19.252Z,6.86
2018-01-23T06:35:19.230Z,6.90
2018-01-23T06:36:19.220Z,6.90
2018-01-23T06:37:19.181Z,6.97
2018-01-23T06:38:19.151Z,6.88
2018-01-23T06:39:19.125Z,6.98
2018-01-23T06:40:19.094Z,6.98
2018-01-23T06:41:19.066Z,6.97
2018-01-23T06:42:19.048Z,7.01
2018-01-23T06:43:19.027Z,7.00
2018-01-23T06:44:18.991Z,7.01
2018-01-23T06:45:18.955Z,6.98
2018-01-23T06:46:18.941Z,7.00
2018-01-23T06:47:32.712Z,6.98
2018-01-23T06:48:34.150Z,6.97
2018-01-23T06:49:18.858Z,6.95
2018-01-23T06:50:18.972Z,6.98
2018-01-23T06:51:19.236Z,6.94
2018-01-23T06:52:18.773Z,6.98
2018-01-23T06:53:18.747Z,7.01
2018-01-23T06:54:18.709Z,7.03
2018-01-23T06:55:18.696Z,7.08
2018-01-23T06:56:18.653Z,6.98
2018-01-23T06:57:18.655Z,7.08
2018-01-23T06:58:18.660Z,7.04
2018-01-23T06:59:18.596Z,7.01
2018-01-23T07:00:18.559Z,6.95
2018-01-23T07:01:18.543Z,7.03
2018-01-23T07:02:18.990Z,7.08
2018-01-23T07:03:18.465Z,7.03
2018-01-23T07:04:18.445Z,6.95
2018-01-23T07:05:18.420Z,6.97
2018-01-23T07:06:18.397Z,6.95
2018-01-23T07:07:18.356Z,6.93
2018-01-23T07:08:18.341Z,6.95
2018-01-23T07:09:18.312Z,6.97
2018-01-23T07:10:18.282Z,7.01
2018-01-23T07:11:18.255Z,7.04
2018-01-23T07:12:18.235Z,7.04
2018-01-23T07:13:18.200Z,7.05
2018-01-23T07:14:18.170Z,7.09
2018-01-23T07:15:18.141Z,7.04
2018-01-23T07:16:18.120Z,7.04
2018-01-23T07:17:18.099Z,7.04
2018-01-23T07:18:18.068Z,7.01
2018-01-23T07:19:18.032Z,7.03
2018-01-23T07:20:18.000Z,7.01
2018-01-23T07:21:17.994Z,7.00
2018-01-23T07:22:18.550Z,7.03
2018-01-23T07:23:17.943Z,7.04
2018-01-23T07:24:17.906Z,7.00
2018-01-23T07:25:17.866Z,7.03
2018-01-23T07:26:17.836Z,6.95
2018-01-23T07:27:17.816Z,7.01
2018-01-23T07:28:17.787Z,6.97
2018-01-23T07:29:17.758Z,7.01
2018-01-23T07:30:20.314Z,7.03
2018-01-23T07:31:18.376Z,7.03
2018-01-23T07:32:17.676Z,7.00
2018-01-23T07:33:19.235Z,7.01
2018-01-23T07:34:18.057Z,7.08
2018-01-23T07:35:17.620Z,7.04
2018-01-23T07:36:17.581Z,7.04
2018-01-23T07:37:17.557Z,7.08
2018-01-23T07:38:17.542Z,7.04
2018-01-23T07:39:17.511Z,7.04
2018-01-23T07:40:17.469Z,7.11
2018-01-23T07:41:17.444Z,7.00
2018-01-23T07:42:17.423Z,7.11
2018-01-23T07:43:17.387Z,7.01
2018-01-23T07:44:17.353Z,7.01
2018-01-23T07:45:17.325Z,7.08
2018-01-23T07:46:17.288Z,7.05
2018-01-23T07:47:17.265Z,7.12
2018-01-23T07:48:17.255Z,7.15
2018-01-23T07:49:17.220Z,7.12
2018-01-23T07:50:17.194Z,7.12
2018-01-23T07:51:17.156Z,7.19
2018-01-23T07:52:17.135Z,7.11
2018-01-23T07:53:17.154Z,7.12
2018-01-23T07:54:17.077Z,7.15
2018-01-23T07:55:17.048Z,7.13
2018-01-23T07:56:17.050Z,7.15
2018-01-23T07:57:17.031Z,7.16
2018-01-23T07:58:16.977Z,7.12
2018-01-23T07:59:16.946Z,7.16
2018-01-23T08:00:16.911Z,7.13
2018-01-23T08:01:16.889Z,7.23
2018-01-23T08:02:16.863Z,7.19
2018-01-23T08:03:16.853Z,7.16
2018-01-23T08:04:16.834Z,7.22
2018-01-23T08:05:16.781Z,7.26
2018-01-23T08:06:16.749Z,7.22
2018-01-23T08:07:16.747Z,7.27
2018-01-23T08:08:16.691Z,7.31
2018-01-23T08:09:16.672Z,7.41
2018-01-23T08:10:16.658Z,7.48
2018-01-23T08:11:16.612Z,7.54
2018-01-23T08:12:16.645Z,7.45
2018-01-23T08:13:16.577Z,7.51
2018-01-23T08:14:16.547Z,7.45
2018-01-23T08:15:16.514Z,7.49
2018-01-23T08:16:16.504Z,7.56
2018-01-23T08:17:16.453Z,7.51
2018-01-23T08:18:16.426Z,7.63
2018-01-23T08:19:16.403Z,7.64
2018-01-23T08:20:16.395Z,7.75
2018-01-23T08:21:16.344Z,7.71
2018-01-23T08:22:16.326Z,7.70
2018-01-23T08:23:16.287Z,7.67
2018-01-23T08:24:16.267Z,7.64
2018-01-23T08:25:16.238Z,7.73
2018-01-23T08:26:16.214Z,7.68
2018-01-23T08:27:16.184Z,7.83
2018-01-23T08:28:16.163Z,7.78
2018-01-23T08:29:16.153Z,7.83
2018-01-23T08:30:16.114Z,7.88
2018-01-23T08:31:16.102Z,7.88
2018-01-23T08:32:16.484Z,7.89
2018-01-23T08:33:16.121Z,7.96
2018-01-23T08:34:15.992Z,7.96
2018-01-23T08:35:15.961Z,8.06
2018-01-23T08:36:16.014Z,8.06
2018-01-23T08:37:15.918Z,8.10
2018-01-23T08:38:15.893Z,8.07
2018-01-23T08:39:15.852Z,8.17
2018-01-23T08:40:15.841Z,8.19
2018-01-23T08:41:15.797Z,8.11
2018-01-23T08:42:15.797Z,8.10
2018-01-23T08:43:15.758Z,8.10
2018-01-23T08:44:15.746Z,8.22
2018-01-23T08:45:16.509Z,8.29
2018-01-23T08:46:15.674Z,8.40
2018-01-23T08:47:15.666Z,8.40
2018-01-23T08:48:15.623Z,8.36
2018-01-23T08:49:15.597Z,8.49
2018-01-23T08:50:15.574Z,8.35
2018-01-23T08:51:15.541Z,8.39
2018-01-23T08:52:15.513Z,8.35
2018-01-23T08:53:15.517Z,8.28
2018-01-23T08:54:15.473Z,8.31
2018-01-23T08:55:15.442Z,8.16
2018-01-23T08:56:15.406Z,8.16
2018-01-23T08:57:15.384Z,8.07
2018-01-23T08:58:15.353Z,7.98
2018-01-23T08:59:15.348Z,8.10
2018-01-23T09:00:15.308Z,8.09
2018-01-23T09:01:15.285Z,8.14
2018-01-23T09:02:15.250Z,8.13
2018-01-23T09:03:15.218Z,8.21
2018-01-23T09:04:15.204Z,8.17
2018-01-23T09:05:15.181Z,8.22
2018-01-23T09:06:15.141Z,8.32
2018-01-23T09:07:15.118Z,8.29
2018-01-23T09:08:15.087Z,8.35
2018-01-23T09:09:15.087Z,8.35
2018-01-23T09:10:15.033Z,8.39
2018-01-23T09:11:15.005Z,8.36
2018-01-23T09:12:14.985Z,8.34
2018-01-23T09:13:14.976Z,8.35
2018-01-23T09:14:14.923Z,8.32
2018-01-23T09:15:14.909Z,8.24
2018-01-23T09:16:14.894Z,8.35
2018-01-23T09:17:14.877Z,8.42
2018-01-23T09:18:14.823Z,8.44
2018-01-23T09:19:14.804Z,8.39
2018-01-23T09:20:14.771Z,8.42
2018-01-23T09:21:14.745Z,8.49
2018-01-23T09:22:14.726Z,8.47
2018-01-23T09:23:14.712Z,8.44
2018-01-23T09:24:14.662Z,8.42
2018-01-23T09:25:14.644Z,8.54
2018-01-23T09:26:14.610Z,8.57
2018-01-23T09:27:14.595Z,8.64
2018-01-23T09:28:14.594Z,8.61
2018-01-23T09:29:14.547Z,8.61
2018-01-23T09:30:14.505Z,8.62
2018-01-23T09:31:14.491Z,8.62
2018-01-23T09:32:14.461Z,8.60
2018-01-23T09:33:14.435Z,8.57
2018-01-23T09:34:14.405Z,8.57
2018-01-23T09:35:14.388Z,8.57
2018-01-23T09:36:14.362Z,8.57
2018-01-23T09:37:14.325Z,8.58
2018-01-23T09:38:14.293Z,8.60
2018-01-23T09:39:14.289Z,8.61
2018-01-23T09:40:14.240Z,8.60
2018-01-23T09:41:14.224Z,8.57
2018-01-23T09:42:14.191Z,8.54
2018-01-23T09:43:14.169Z,8.43
2018-01-23T09:44:14.141Z,8.34
2018-01-23T09:45:14.106Z,8.39
2018-01-23T09:46:14.086Z,8.40
2018-01-23T09:47:14.068Z,8.35
2018-01-23T09:48:14.036Z,8.40
2018-01-23T09:49:14.007Z,8.35
2018-01-23T09:50:13.988Z,8.40
2018-01-23T09:51:13.977Z,8.42
2018-01-23T09:52:13.938Z,8.57
2018-01-23T09:53:13.923Z,8.47
2018-01-23T09:54:13.886Z,8.52
2018-01-23T09:55:13.885Z,8.50
2018-01-23T09:56:13.842Z,8.53
2018-01-23T09:57:13.807Z,8.67
2018-01-23T09:58:13.778Z,8.71
2018-01-23T09:59:13.757Z,8.68
2018-01-23T10:00:13.723Z,8.71
2018-01-23T10:01:13.690Z,8.61
2018-01-23T10:02:13.679Z,8.60
2018-01-23T10:03:13.642Z,8.62
2018-01-23T10:04:13.617Z,8.54
2018-01-23T10:05:13.589Z,8.61
2018-01-23T10:06:13.574Z,8.65
2018-01-23T10:07:13.540Z,8.74
2018-01-23T10:08:13.538Z,8.72
2018-01-23T10:09:13.485Z,8.71
2018-01-23T10:10:13.474Z,8.82
2018-01-23T10:11:13.451Z,8.83
2018-01-23T10:12:13.415Z,8.80
2018-01-23T10:13:13.381Z,8.79
2018-01-23T10:14:13.349Z,8.86
2018-01-23T10:15:13.348Z,8.86
2018-01-23T10:16:13.310Z,8.85
2018-01-23T10:17:13.272Z,8.92
2018-01-23T10:18:13.267Z,8.83
2018-01-23T10:19:13.240Z,8.89
2018-01-23T10:20:13.200Z,8.83
2018-01-23T10:21:13.174Z,8.89
2018-01-23T10:22:13.153Z,8.80
2018-01-23T10:23:13.125Z,8.79
2018-01-23T10:24:13.096Z,8.74
2018-01-23T10:25:13.067Z,8.83
2018-01-23T10:26:13.063Z,8.79
2018-01-23T10:27:13.031Z,8.87
2018-01-23T10:28:12.993Z,8.86
2018-01-23T10:29:12.964Z,8.90
2018-01-23T10:30:12.952Z,8.97
2018-01-23T10:31:12.943Z,9.01
2018-01-23T10:32:12.899Z,9.04
2018-01-23T10:33:12.856Z,9.03
2018-01-23T10:34:12.835Z,8.90
2018-01-23T10:35:12.837Z,9.04
2018-01-23T10:36:12.798Z,9.09
2018-01-23T10:37:12.762Z,9.08
2018-01-23T10:38:12.751Z,9.09
2018-01-23T10:39:12.698Z,9.16
2018-01-23T10:40:12.686Z,9.17
2018-01-23T10:41:12.662Z,9.03
2018-01-23T10:42:12.629Z,9.11
2018-01-23T10:43:12.598Z,9.11
2018-01-23T10:44:12.573Z,9.05
2018-01-23T10:45:12.551Z,8.95
2018-01-23T10:46:12.528Z,8.98
2018-01-23T10:47:12.511Z,9.03
2018-01-23T10:48:12.490Z,8.98
2018-01-23T10:49:12.447Z,9.00
2018-01-23T10:50:12.418Z,9.05
2018-01-23T10:51:12.405Z,9.08
2018-01-23T10:52:12.380Z,9.09
2018-01-23T10:53:12.341Z,9.23
2018-01-23T10:54:12.314Z,9.21
2018-01-23T10:55:12.283Z,9.24
2018-01-23T10:56:12.310Z,9.30
2018-01-23T10:57:12.239Z,9.30
2018-01-23T10:58:12.216Z,9.30
2018-01-23T10:59:12.196Z,9.37
2018-01-23T11:00:12.183Z,9.41
2018-01-23T11:01:12.148Z,9.27
2018-01-23T11:02:12.126Z,9.27
2018-01-23T11:03:12.086Z,9.27
2018-01-23T11:04:12.060Z,9.30
2018-01-23T11:05:12.038Z,9.21
2018-01-23T11:06:12.009Z,9.24
2018-01-23T11:07:11.990Z,9.27
2018-01-23T11:08:11.959Z,9.21
2018-01-23T11:09:11.937Z,9.27
2018-01-23T11:10:11.895Z,9.27
2018-01-23T11:11:11.877Z,9.24
2018-01-23T11:12:11.858Z,9.37
2018-01-23T11:13:11.838Z,9.29
2018-01-23T11:14:11.795Z,9.34
2018-01-23T11:15:11.774Z,9.27
2018-01-23T11:16:11.760Z,9.26
2018-01-23T11:17:11.723Z,9.27
2018-01-23T11:18:11.692Z,9.21
2018-01-23T11:19:11.669Z,9.19
2018-01-23T11:20:11.653Z,9.19
2018-01-23T11:21:11.614Z,9.17
2018-01-23T11:22:11.592Z,9.21
2018-01-23T11:23:11.578Z,9.24
2018-01-23T11:24:11.537Z,9.17
2018-01-23T11:25:11.515Z,9.19
2018-01-23T11:26:11.526Z,9.03
2018-01-23T11:27:11.484Z,9.12
2018-01-23T11:28:11.436Z,9.08
2018-01-23T11:29:11.415Z,9.03
2018-01-23T11:30:11.402Z,9.19
2018-01-23T11:31:11.361Z,9.11
2018-01-23T11:32:11.334Z,9.24
2018-01-23T11:33:11.311Z,9.21
2018-01-23T11:34:11.300Z,9.19
2018-01-23T11:35:11.269Z,9.23
2018-01-23T11:36:11.230Z,9.23
2018-01-23T11:37:11.210Z,9.27
2018-01-23T11:38:11.192Z,9.24
2018-01-23T11:39:11.178Z,9.27
2018-01-23T11:40:11.151Z,9.23
2018-01-23T11:41:11.104Z,9.32
2018-01-23T11:42:11.082Z,9.29
2018-01-23T11:43:11.059Z,9.34
2018-01-23T11:44:11.038Z,9.35
2018-01-23T11:45:11.006Z,9.27
2018-01-23T11:46:10.977Z,9.30
2018-01-23T11:47:10.956Z,9.29
2018-01-23T11:48:10.922Z,9.35
2018-01-23T11:49:10.899Z,9.35
2018-01-23T11:50:10.869Z,9.48
2018-01-23T11:51:10.882Z,9.56
2018-01-23T11:52:10.874Z,9.41
2018-01-23T11:53:10.811Z,9.45
2018-01-23T11:54:10.788Z,9.45
2018-01-23T11:55:10.756Z,9.50
2018-01-23T11:56:10.724Z,9.57
2018-01-23T11:57:10.703Z,9.55
2018-01-23T11:58:10.675Z,9.72
2018-01-23T11:59:10.636Z,9.78
2018-01-23T12:00:10.636Z,9.75
2018-01-23T12:01:10.587Z,9.77
2018-01-23T12:02:10.572Z,9.70
2018-01-23T12:03:10.548Z,9.66
2018-01-23T12:04:10.544Z,9.55
2018-01-23T12:05:10.619Z,9.57
2018-01-23T12:06:10.465Z,9.56
2018-01-23T12:07:10.442Z,9.60
2018-01-23T12:08:10.415Z,9.56
2018-01-23T12:09:10.405Z,9.53
2018-01-23T12:10:10.367Z,9.62
2018-01-23T12:11:10.358Z,9.67
2018-01-23T12:12:10.338Z,9.72
2018-01-23T12:13:10.304Z,9.71
2018-01-23T12:14:10.256Z,9.71
2018-01-23T12:15:10.251Z,9.72
2018-01-23T12:16:10.238Z,9.74
2018-01-23T12:17:10.203Z,9.64
2018-01-23T12:18:10.155Z,9.62
2018-01-23T12:19:10.148Z,9.74
2018-01-23T12:20:10.108Z,9.74
2018-01-23T12:21:10.089Z,9.72
2018-01-23T12:22:10.080Z,9.72
2018-01-23T12:23:10.039Z,9.70
2018-01-23T12:24:10.015Z,9.84
2018-01-23T12:25:09.985Z,9.89
2018-01-23T12:26:09.997Z,9.95
2018-01-23T12:27:09.930Z,9.89
2018-01-23T12:28:09.920Z,9.92
2018-01-23T12:29:09.882Z,9.92
2018-01-23T12:30:09.849Z,10.07
2018-01-23T12:31:09.860Z,10.07
2018-01-23T12:32:09.822Z,10.10
2018-01-23T12:33:09.775Z,10.05
2018-01-23T12:34:09.759Z,10.08
2018-01-23T12:35:09.748Z,9.99
2018-01-23T12:36:09.706Z,10.08
2018-01-23T12:37:09.680Z,10.02
2018-01-23T12:38:09.647Z,10.00
2018-01-23T12:39:09.632Z,10.02
2018-01-23T12:40:09.596Z,9.89
2018-01-23T12:41:09.584Z,9.90
2018-01-23T12:42:09.566Z,9.90
2018-01-23T12:43:09.521Z,10.00
2018-01-23T12:44:09.510Z,9.95
2018-01-23T12:45:09.512Z,9.95
2018-01-23T12:46:09.454Z,9.95
2018-01-23T12:47:09.422Z,9.90
2018-01-23T12:48:09.398Z,9.89
2018-01-23T12:49:09.371Z,9.80
2018-01-23T12:50:09.351Z,9.95
2018-01-23T12:51:09.345Z,9.81
2018-01-23T12:52:09.309Z,9.89
2018-01-23T12:53:09.273Z,9.92
2018-01-23T12:54:09.245Z,9.92
2018-01-23T12:55:09.228Z,9.92
2018-01-23T12:56:09.206Z,9.90
2018-01-23T12:57:09.174Z,9.92
2018-01-23T12:58:09.154Z,9.93
2018-01-23T12:59:09.127Z,9.95
2018-01-23T13:00:09.109Z,9.90
2018-01-23T13:01:09.069Z,9.92
2018-01-23T13:02:09.039Z,9.98
2018-01-23T13:03:09.020Z,10.00
2018-01-23T13:04:09.026Z,9.99
2018-01-23T13:05:08.994Z,9.90
2018-01-23T13:06:08.944Z,9.82
2018-01-23T13:07:08.945Z,9.92
2018-01-23T13:08:08.895Z,9.93
2018-01-23T13:09:08.862Z,9.96
2018-01-23T13:10:08.850Z,10.02
2018-01-23T13:11:08.817Z,10.07
2018-01-23T13:12:08.794Z,10.07
2018-01-23T13:13:08.766Z,9.95
2018-01-23T13:14:08.741Z,9.96
2018-01-23T13:15:08.718Z,9.89
2018-01-23T13:16:08.711Z,9.90
2018-01-23T13:17:08.666Z,9.98